PWSweather.com
Personal Weather Stations
Station Observations
JEDRZEJOW
Kielce, JedrzejowPL 28-300

KielceJedrzejowPL 28-300

Lat: 50.64416885, Lon: 20.30450058

Elevation: 790

Station Type: WH1080

Latest ConditionsUpdated 6:30:00 PM GMT+01:01 Saturday, Jan 19, 2019
Currently Today's Max Today's Min Today's Average
Temperature 30.0°F-1.1°C 36.3°F2.4°C 23.4°F-4.8°C 29.3°F-1.5°C
Dew Point 19.3°F-7.1°C 22.5°F-5.3°C 17.3°F-8.2°C 19.5°F-6.9°C
Winds 0.8 mph E1.3 kmh E 5.2 mph -8.4 kmh - - 2.4 mph 3.9 kmh
Wind Gusts 2.2 mph3.5 kmh 9.8 mph15.8 kmh - -
Humidity 64% 80% 51% 67%
Pressure 30.11 in1019.6 mb 30.15 in1021.0 mb 30.11 in1019.6 mb -
Hour Temp Dew Point Humidity Winds Wind Gusts Pressure Precip Precip Rate Daily Precip Total
06:30 PM 30.0°F-1.1°C 19.3°F-7.1°C 64% 0.8 mph E1.3 kmh E 2.2 mph3.5 kmh 30.11 in1019.6 mb 0.00 in0.0 mm 0.00 in0.0 mm 0.00 in0.0 mm
06:15 PM 30.2°F-1.0°C 19.5°F-6.9°C 64% 0.6 mph ESE1.0 kmh ESE 2.2 mph3.5 kmh 30.11 in1019.6 mb 0.00 in0.0 mm 0.00 in0.0 mm 0.00 in0.0 mm
06:00 PM 30.6°F-0.8°C 19.8°F-6.8°C 64% 0.6 mph E1.0 kmh E 2.2 mph3.5 kmh 30.11 in1019.6 mb 0.00 in0.0 mm 0.00 in0.0 mm 0.00 in0.0 mm
05:45 PM 30.7°F-0.7°C 20.0°F-6.7°C 64% 0.2 mph ESE0.3 kmh ESE 1.6 mph2.6 kmh 30.12 in1020.0 mb 0.00 in0.0 mm 0.00 in0.0 mm 0.00 in0.0 mm
05:30 PM 30.7°F-0.7°C 20.0°F-6.7°C 64% 0.3 mph ESE0.5 kmh ESE 1.6 mph2.6 kmh 30.12 in1020.0 mb 0.00 in0.0 mm 0.00 in0.0 mm 0.00 in0.0 mm
05:15 PM 30.6°F-0.8°C 19.8°F-6.8°C 64% 1.8 mph SE2.9 kmh SE 4.5 mph7.2 kmh 30.12 in1020.0 mb 0.00 in0.0 mm 0.00 in0.0 mm 0.00 in0.0 mm
05:00 PM 30.7°F-0.7°C 19.6°F-6.9°C 63% 3.2 mph S5.1 kmh S 5.4 mph8.7 kmh 30.12 in1020.0 mb 0.00 in0.0 mm 0.00 in0.0 mm 0.00 in0.0 mm
04:45 PM 31.1°F-0.5°C 19.6°F-6.9°C 62% 2.5 mph S4.0 kmh S 4.5 mph7.2 kmh 30.12 in1020.0 mb 0.00 in0.0 mm 0.00 in0.0 mm 0.00 in0.0 mm
04:30 PM 31.8°F-0.1°C 19.9°F-6.7°C 61% 2.1 mph SSE3.4 kmh SSE 3.8 mph6.1 kmh 30.12 in1020.0 mb 0.00 in0.0 mm 0.00 in0.0 mm 0.00 in0.0 mm
04:15 PM 32.4°F0.2°C 20.0°F-6.7°C 60% 1.6 mph SSE2.6 kmh SSE 3.1 mph5.0 kmh 30.13 in1020.3 mb 0.00 in0.0 mm 0.00 in0.0 mm 0.00 in0.0 mm
04:00 PM 32.9°F0.5°C 20.1°F-6.6°C 59% 1.9 mph SSE3.1 kmh SSE 3.1 mph5.0 kmh 30.12 in1020.0 mb 0.00 in0.0 mm 0.00 in0.0 mm 0.00 in0.0 mm
03:45 PM 33.4°F0.8°C 19.8°F-6.8°C 57% 2.4 mph S3.9 kmh S 4.5 mph7.2 kmh 30.12 in1020.0 mb 0.00 in0.0 mm 0.00 in0.0 mm 0.00 in0.0 mm
03:30 PM 34.0°F1.1°C 19.5°F-6.9°C 55% 3.4 mph S5.5 kmh S 6.0 mph9.7 kmh 30.13 in1020.3 mb 0.00 in0.0 mm 0.00 in0.0 mm 0.00 in0.0 mm
03:15 PM 34.5°F1.4°C 19.6°F-6.9°C 54% 3.5 mph S5.6 kmh S 6.0 mph9.7 kmh 30.13 in1020.3 mb 0.00 in0.0 mm 0.00 in0.0 mm 0.00 in0.0 mm
03:00 PM 34.9°F1.6°C 19.9°F-6.7°C 54% 3.0 mph S4.8 kmh S 4.5 mph7.2 kmh 30.13 in1020.3 mb 0.00 in0.0 mm 0.00 in0.0 mm 0.00 in0.0 mm
02:45 PM 35.2°F1.8°C 19.8°F-6.8°C 53% 3.0 mph S4.8 kmh S 5.4 mph8.7 kmh 30.13 in1020.3 mb 0.00 in0.0 mm 0.00 in0.0 mm 0.00 in0.0 mm
02:30 PM 35.8°F2.1°C 19.4°F-7.0°C 51% 1.6 mph SW2.6 kmh SW 3.8 mph6.1 kmh 30.13 in1020.3 mb 0.00 in0.0 mm 0.00 in0.0 mm 0.00 in0.0 mm
02:15 PM 35.8°F2.1°C 19.9°F-6.7°C 52% 2.6 mph WSW4.2 kmh WSW 5.4 mph8.7 kmh 30.13 in1020.3 mb 0.00 in0.0 mm 0.00 in0.0 mm 0.00 in0.0 mm
02:00 PM 35.8°F2.1°C 19.4°F-7.0°C 51% 1.8 mph WSW2.9 kmh WSW 6.0 mph9.7 kmh 30.13 in1020.3 mb 0.00 in0.0 mm 0.00 in0.0 mm 0.00 in0.0 mm
01:45 PM 35.6°F2.0°C 19.2°F-7.1°C 51% 2.8 mph SW4.5 kmh SW 5.4 mph8.7 kmh 30.13 in1020.3 mb 0.00 in0.0 mm 0.00 in0.0 mm 0.00 in0.0 mm
01:30 PM 36.0°F2.2°C 19.6°F-6.9°C 51% 1.6 mph SW2.6 kmh SW 4.5 mph7.2 kmh 30.12 in1020.0 mb 0.00 in0.0 mm 0.00 in0.0 mm 0.00 in0.0 mm
01:15 PM 36.1°F2.3°C 19.7°F-6.8°C 51% 2.8 mph WSW4.5 kmh WSW 6.0 mph9.7 kmh 30.13 in1020.3 mb 0.00 in0.0 mm 0.00 in0.0 mm 0.00 in0.0 mm
01:00 PM 36.0°F2.2°C 19.6°F-6.9°C 51% 3.4 mph SW5.5 kmh SW 5.4 mph8.7 kmh 30.14 in1020.7 mb 0.00 in0.0 mm 0.00 in0.0 mm 0.00 in0.0 mm
12:45 PM 36.3°F2.4°C 19.9°F-6.7°C 51% 2.9 mph WSW4.7 kmh WSW 6.9 mph11.1 kmh 30.14 in1020.7 mb 0.00 in0.0 mm 0.00 in0.0 mm 0.00 in0.0 mm
12:30 PM 36.0°F2.2°C 20.9°F-6.2°C 54% 2.4 mph W3.9 kmh W 6.9 mph11.1 kmh 30.14 in1020.7 mb 0.00 in0.0 mm 0.00 in0.0 mm 0.00 in0.0 mm
12:15 PM 34.9°F1.6°C 20.3°F-6.5°C 55% 2.8 mph WNW4.5 kmh WNW 6.0 mph9.7 kmh 30.15 in1021.0 mb 0.00 in0.0 mm 0.00 in0.0 mm 0.00 in0.0 mm
12:00 PM 34.9°F1.6°C 20.8°F-6.2°C 56% 3.1 mph W5.0 kmh W 9.2 mph14.8 kmh 30.15 in1021.0 mb 0.00 in0.0 mm 0.00 in0.0 mm 0.00 in0.0 mm
11:45 AM 34.7°F1.5°C 21.8°F-5.7°C 59% 2.7 mph WNW4.3 kmh WNW 6.9 mph11.1 kmh 30.14 in1020.7 mb 0.00 in0.0 mm 0.00 in0.0 mm 0.00 in0.0 mm
11:30 AM 34.5°F1.4°C 22.1°F-5.5°C 60% 3.1 mph WSW5.0 kmh WSW 6.0 mph9.7 kmh 30.15 in1021.0 mb 0.00 in0.0 mm 0.00 in0.0 mm 0.00 in0.0 mm
11:15 AM 34.2°F1.2°C 21.7°F-5.7°C 60% 3.8 mph W6.1 kmh W 8.3 mph13.4 kmh 30.15 in1021.0 mb 0.00 in0.0 mm 0.00 in0.0 mm 0.00 in0.0 mm
11:00 AM 34.3°F1.3°C 22.3°F-5.4°C 61% 3.1 mph W5.0 kmh W 7.6 mph12.2 kmh 30.15 in1021.0 mb 0.00 in0.0 mm 0.00 in0.0 mm 0.00 in0.0 mm
10:45 AM 34.2°F1.2°C 22.5°F-5.3°C 62% 3.7 mph WSW6.0 kmh WSW 7.6 mph12.2 kmh 30.15 in1021.0 mb 0.00 in0.0 mm 0.00 in0.0 mm 0.00 in0.0 mm
10:30 AM 32.9°F0.5°C 21.7°F-5.7°C 63% 4.2 mph W6.8 kmh W 8.3 mph13.4 kmh 30.15 in1021.0 mb 0.00 in0.0 mm 0.00 in0.0 mm 0.00 in0.0 mm
10:15 AM 32.0°F0.0°C 21.6°F-5.8°C 65% 5.2 mph SW8.4 kmh SW 7.6 mph12.2 kmh 30.15 in1021.0 mb 0.00 in0.0 mm 0.00 in0.0 mm 0.00 in0.0 mm
10:00 AM 31.1°F-0.5°C 22.1°F-5.5°C 69% 4.8 mph WSW7.7 kmh WSW 9.8 mph15.8 kmh 30.15 in1021.0 mb 0.00 in0.0 mm 0.00 in0.0 mm 0.00 in0.0 mm
09:45 AM 30.0°F-1.1°C 22.1°F-5.5°C 72% 4.9 mph WSW7.9 kmh WSW 9.2 mph14.8 kmh 30.15 in1021.0 mb 0.00 in0.0 mm 0.00 in0.0 mm 0.00 in0.0 mm
09:30 AM 28.8°F-1.8°C 22.5°F-5.3°C 77% 3.5 mph WSW5.6 kmh WSW 7.6 mph12.2 kmh 30.14 in1020.7 mb 0.00 in0.0 mm 0.00 in0.0 mm 0.00 in0.0 mm
09:15 AM 27.3°F-2.6°C 22.0°F-5.6°C 80% 2.4 mph WSW3.9 kmh WSW 6.0 mph9.7 kmh 30.14 in1020.7 mb 0.00 in0.0 mm 0.00 in0.0 mm 0.00 in0.0 mm
09:00 AM 26.1°F-3.3°C 20.7°F-6.3°C 80% 2.1 mph W3.4 kmh W 4.5 mph7.2 kmh 30.14 in1020.7 mb 0.00 in0.0 mm 0.00 in0.0 mm 0.00 in0.0 mm
08:45 AM 25.0°F-3.9°C 19.4°F-7.0°C 79% 0.6 mph W1.0 kmh W 2.2 mph3.5 kmh 30.14 in1020.7 mb 0.00 in0.0 mm 0.00 in0.0 mm 0.00 in0.0 mm
08:30 AM 24.3°F-4.3°C 18.7°F-7.4°C 79% 0.7 mph W1.1 kmh W 3.1 mph5.0 kmh 30.13 in1020.3 mb 0.00 in0.0 mm 0.00 in0.0 mm 0.00 in0.0 mm
08:15 AM 23.5°F-4.7°C 17.7°F-7.9°C 78% 0.2 mph W0.3 kmh W 1.6 mph2.6 kmh 30.13 in1020.3 mb 0.00 in0.0 mm 0.00 in0.0 mm 0.00 in0.0 mm
08:00 AM 23.4°F-4.8°C 17.5°F-8.1°C 78% 0.9 mph SW1.4 kmh SW 3.1 mph5.0 kmh 30.12 in1020.0 mb 0.00 in0.0 mm 0.00 in0.0 mm 0.00 in0.0 mm
07:45 AM 23.5°F-4.7°C 17.7°F-7.9°C 78% 0.7 mph WSW1.1 kmh WSW 2.2 mph3.5 kmh 30.12 in1020.0 mb 0.00 in0.0 mm 0.00 in0.0 mm 0.00 in0.0 mm
07:30 AM 23.7°F-4.6°C 18.2°F-7.7°C 79% 2.0 mph SW3.2 kmh SW 4.5 mph7.2 kmh 30.11 in1019.6 mb 0.00 in0.0 mm 0.00 in0.0 mm 0.00 in0.0 mm
07:15 AM 23.9°F-4.5°C 18.3°F-7.6°C 79% 3.3 mph SW5.3 kmh SW 6.9 mph11.1 kmh 30.11 in1019.6 mb 0.00 in0.0 mm 0.00 in0.0 mm 0.00 in0.0 mm
07:00 AM 23.7°F-4.6°C 18.2°F-7.7°C 79% 3.6 mph SW5.8 kmh SW 6.0 mph9.7 kmh 30.11 in1019.6 mb 0.00 in0.0 mm 0.00 in0.0 mm 0.00 in0.0 mm
06:45 AM 23.4°F-4.8°C 17.5°F-8.1°C 78% 2.1 mph WSW3.4 kmh WSW 4.5 mph7.2 kmh 30.11 in1019.6 mb 0.00 in0.0 mm 0.00 in0.0 mm 0.00 in0.0 mm
06:30 AM 23.4°F-4.8°C 17.5°F-8.1°C 78% 1.4 mph WSW2.3 kmh WSW 3.8 mph6.1 kmh 30.11 in1019.6 mb 0.00 in0.0 mm 0.00 in0.0 mm 0.00 in0.0 mm
06:15 AM 23.5°F-4.7°C 17.7°F-7.9°C 78% 1.8 mph WSW2.9 kmh WSW 4.5 mph7.2 kmh 30.11 in1019.6 mb 0.00 in0.0 mm 0.00 in0.0 mm 0.00 in0.0 mm
06:00 AM 23.5°F-4.7°C 17.4°F-8.1°C 77% 2.2 mph WSW3.5 kmh WSW 4.5 mph7.2 kmh 30.11 in1019.6 mb 0.00 in0.0 mm 0.00 in0.0 mm 0.00 in0.0 mm
05:45 AM 23.7°F-4.6°C 17.6°F-8.0°C 77% 1.5 mph WSW2.4 kmh WSW 3.1 mph5.0 kmh 30.11 in1019.6 mb 0.00 in0.0 mm 0.00 in0.0 mm 0.00 in0.0 mm
05:30 AM 23.9°F-4.5°C 17.7°F-7.9°C 77% 2.3 mph WSW3.7 kmh WSW 5.4 mph8.7 kmh 30.11 in1019.6 mb 0.00 in0.0 mm 0.00 in0.0 mm 0.00 in0.0 mm
05:15 AM 23.7°F-4.6°C 17.3°F-8.2°C 76% 1.5 mph SW2.4 kmh SW 3.1 mph5.0 kmh 30.12 in1020.0 mb 0.00 in0.0 mm 0.00 in0.0 mm 0.00 in0.0 mm
05:00 AM 24.1°F-4.4°C 17.6°F-8.0°C 76% 0.3 mph W0.5 kmh W 2.2 mph3.5 kmh 30.11 in1019.6 mb 0.00 in0.0 mm 0.00 in0.0 mm 0.00 in0.0 mm
04:45 AM 24.3°F-4.3°C 17.8°F-7.9°C 76% 1.0 mph WNW1.6 kmh WNW 3.1 mph5.0 kmh 30.11 in1019.6 mb 0.00 in0.0 mm 0.00 in0.0 mm 0.00 in0.0 mm
04:30 AM 24.4°F-4.2°C 17.6°F-8.0°C 75% 1.1 mph W1.8 kmh W 3.1 mph5.0 kmh 30.11 in1019.6 mb 0.00 in0.0 mm 0.00 in0.0 mm 0.00 in0.0 mm
04:15 AM 24.8°F-4.0°C 18.0°F-7.8°C 75% 1.5 mph WSW2.4 kmh WSW 4.5 mph7.2 kmh 30.11 in1019.6 mb 0.00 in0.0 mm 0.00 in0.0 mm 0.00 in0.0 mm
04:00 AM 25.0°F-3.9°C 18.2°F-7.7°C 75% 3.2 mph WSW5.1 kmh WSW 5.4 mph8.7 kmh 30.11 in1019.6 mb 0.00 in0.0 mm 0.00 in0.0 mm 0.00 in0.0 mm
03:45 AM 25.2°F-3.8°C 18.3°F-7.6°C 75% 3.0 mph SW4.8 kmh SW 5.4 mph8.7 kmh 30.11 in1019.6 mb 0.00 in0.0 mm 0.00 in0.0 mm 0.00 in0.0 mm
03:30 AM 25.3°F-3.7°C 18.2°F-7.7°C 74% 1.1 mph WSW1.8 kmh WSW 3.1 mph5.0 kmh 30.11 in1019.6 mb 0.00 in0.0 mm 0.00 in0.0 mm 0.00 in0.0 mm
03:15 AM 25.5°F-3.6°C 18.1°F-7.7°C 73% 2.0 mph SW3.2 kmh SW 3.8 mph6.1 kmh 30.12 in1020.0 mb 0.00 in0.0 mm 0.00 in0.0 mm 0.00 in0.0 mm
03:00 AM 25.7°F-3.5°C 18.2°F-7.7°C 73% 1.9 mph SW3.1 kmh SW 3.8 mph6.1 kmh 30.11 in1019.6 mb 0.00 in0.0 mm 0.00 in0.0 mm 0.00 in0.0 mm
02:45 AM 26.1°F-3.3°C 18.6°F-7.4°C 73% 1.1 mph SW1.8 kmh SW 4.5 mph7.2 kmh 30.12 in1020.0 mb 0.00 in0.0 mm 0.00 in0.0 mm 0.00 in0.0 mm
02:30 AM 26.4°F-3.1°C 18.6°F-7.4°C 72% 2.1 mph WSW3.4 kmh WSW 3.8 mph6.1 kmh 30.11 in1019.6 mb 0.00 in0.0 mm 0.00 in0.0 mm 0.00 in0.0 mm
02:15 AM 26.6°F-3.0°C 18.8°F-7.3°C 72% 1.9 mph WNW3.1 kmh WNW 3.8 mph6.1 kmh 30.12 in1020.0 mb 0.00 in0.0 mm 0.00 in0.0 mm 0.00 in0.0 mm
02:00 AM 27.0°F-2.8°C 19.1°F-7.2°C 72% 3.0 mph WSW4.8 kmh WSW 5.4 mph8.7 kmh 30.11 in1019.6 mb 0.00 in0.0 mm 0.00 in0.0 mm 0.00 in0.0 mm
01:45 AM 27.1°F-2.7°C 19.3°F-7.1°C 72% 4.0 mph W6.4 kmh W 6.9 mph11.1 kmh 30.12 in1020.0 mb 0.00 in0.0 mm 0.00 in0.0 mm 0.00 in0.0 mm
01:30 AM 27.5°F-2.5°C 19.7°F-6.8°C 72% 3.4 mph WSW5.5 kmh WSW 6.0 mph9.7 kmh 30.11 in1019.6 mb 0.00 in0.0 mm 0.00 in0.0 mm 0.00 in0.0 mm
01:15 AM 27.7°F-2.4°C 19.8°F-6.8°C 72% 4.2 mph WSW6.8 kmh WSW 7.6 mph12.2 kmh 30.11 in1019.6 mb 0.00 in0.0 mm 0.00 in0.0 mm 0.00 in0.0 mm
01:00 AM 27.9°F-2.3°C 19.7°F-6.8°C 71% 3.6 mph WSW5.8 kmh WSW 6.9 mph11.1 kmh 30.11 in1019.6 mb 0.00 in0.0 mm 0.00 in0.0 mm 0.00 in0.0 mm
12:45 AM 28.0°F-2.2°C 19.8°F-6.8°C 71% 3.9 mph SW6.3 kmh SW 5.4 mph8.7 kmh 30.11 in1019.6 mb 0.00 in0.0 mm 0.00 in0.0 mm 0.00 in0.0 mm
12:30 AM 28.4°F-2.0°C 20.2°F-6.6°C 71% 4.0 mph W6.4 kmh W 8.3 mph13.4 kmh 30.11 in1019.6 mb 0.00 in0.0 mm 0.00 in0.0 mm 0.00 in0.0 mm
12:15 AM 28.8°F-1.8°C 20.5°F-6.4°C 71% 4.6 mph W7.4 kmh W 8.3 mph13.4 kmh 30.11 in1019.6 mb 0.00 in0.0 mm 0.00 in0.0 mm 0.00 in0.0 mm
12:00 AM 28.9°F-1.7°C 20.7°F-6.3°C 71% 4.3 mph W6.9 kmh W 8.3 mph13.4 kmh 30.11 in1019.6 mb 0.00 in0.0 mm 0.00 in0.0 mm 0.00 in0.0 mm